createdAt,value
2023-03-06T09:08:22.779Z,25.00
2023-03-06T09:09:23.790Z,25.00
2023-03-06T09:10:23.865Z,25.00
2023-03-06T09:11:23.998Z,25.00
2023-03-06T09:12:25.470Z,25.00
2023-03-06T09:13:23.957Z,0.00
2023-03-06T09:14:23.951Z,0.00
2023-03-06T09:15:23.937Z,0.00
2023-03-06T09:16:24.030Z,0.00
2023-03-06T09:17:24.014Z,0.00
2023-03-06T09:18:23.913Z,0.00
2023-03-06T09:19:25.489Z,0.00
2023-03-06T09:20:24.068Z,0.00
2023-03-06T09:21:23.972Z,0.00
2023-03-06T09:22:23.977Z,0.00
2023-03-06T09:23:24.485Z,0.00
2023-03-06T09:24:24.140Z,0.00
2023-03-06T09:25:23.947Z,0.00
2023-03-06T09:26:32.775Z,0.00
2023-03-06T09:27:23.992Z,0.00
2023-03-06T09:28:23.974Z,0.00
2023-03-06T09:29:23.993Z,0.00
2023-03-06T09:30:24.520Z,0.00
2023-03-06T09:31:24.489Z,0.00
2023-03-06T09:32:23.944Z,0.00
2023-03-06T09:33:23.992Z,0.00
2023-03-06T09:34:24.486Z,0.00
2023-03-06T09:35:23.960Z,0.00
2023-03-06T09:36:25.513Z,0.00
2023-03-06T09:37:24.117Z,0.00
2023-03-06T09:38:24.044Z,0.00
2023-03-06T09:39:24.079Z,0.00
2023-03-06T09:40:23.997Z,0.00
2023-03-06T09:41:24.060Z,0.00
2023-03-06T09:42:23.946Z,0.00
2023-03-06T09:43:23.936Z,0.00
2023-03-06T09:44:24.531Z,0.00
2023-03-06T09:45:24.025Z,0.00
2023-03-06T09:46:24.166Z,0.00
2023-03-06T09:47:24.021Z,0.00
2023-03-06T09:48:23.900Z,0.00
2023-03-06T09:49:24.064Z,0.00
2023-03-06T09:50:23.871Z,0.00
2023-03-06T09:51:24.496Z,0.00
2023-03-06T09:52:23.848Z,0.00
2023-03-06T09:53:23.890Z,0.00
2023-03-06T09:54:24.004Z,0.00
2023-03-06T09:55:23.827Z,0.00
2023-03-06T09:56:23.865Z,10.83
2023-03-06T09:57:23.830Z,25.40
2023-03-06T09:58:23.816Z,26.93
2023-03-06T09:59:23.820Z,26.06
2023-03-06T10:00:23.777Z,25.00
2023-03-06T10:01:23.770Z,25.31
2023-03-06T10:02:24.094Z,25.89
2023-03-06T10:03:23.807Z,25.13
2023-03-06T10:04:23.761Z,25.00
2023-03-06T10:05:24.280Z,26.58
2023-03-06T10:06:23.766Z,25.00
2023-03-06T10:07:24.508Z,24.46
2023-03-06T10:08:23.709Z,26.56
2023-03-06T10:09:23.693Z,25.00
2023-03-06T10:10:24.040Z,25.00
2023-03-06T10:11:23.685Z,29.11
2023-03-06T10:12:24.926Z,25.00
2023-03-06T10:13:23.665Z,27.22
2023-03-06T10:14:23.644Z,33.13
2023-03-06T10:15:23.639Z,25.00
2023-03-06T10:16:23.634Z,29.34
2023-03-06T10:17:23.701Z,26.47
2023-03-06T10:18:24.011Z,28.74
2023-03-06T10:19:24.040Z,25.00
2023-03-06T10:20:24.018Z,25.00
2023-03-06T10:21:23.590Z,25.99
2023-03-06T10:22:23.633Z,25.85
2023-03-06T10:23:23.599Z,25.84
2023-03-06T10:24:23.568Z,25.70
2023-03-06T10:25:24.056Z,25.30
2023-03-06T10:26:23.680Z,26.43
2023-03-06T10:27:23.571Z,26.23
2023-03-06T10:28:23.579Z,26.87
2023-03-06T10:29:23.554Z,33.40
2023-03-06T10:30:23.541Z,25.84
2023-03-06T10:31:24.143Z,26.71
2023-03-06T10:32:23.622Z,25.00
2023-03-06T10:33:23.558Z,31.37
2023-03-06T10:34:23.546Z,27.05
2023-03-06T10:35:23.582Z,25.19
2023-03-06T10:36:23.498Z,59.89
2023-03-06T10:37:23.556Z,52.35
2023-03-06T10:38:24.107Z,35.74
2023-03-06T10:39:24.011Z,27.53
2023-03-06T10:40:23.487Z,25.86
2023-03-06T10:41:23.724Z,25.00
2023-03-06T10:42:24.522Z,32.06
2023-03-06T10:43:23.521Z,26.24
2023-03-06T10:44:23.624Z,25.99
2023-03-06T10:45:24.390Z,28.99
2023-03-06T10:46:23.677Z,30.16
2023-03-06T10:47:26.593Z,28.98
2023-03-06T10:48:23.583Z,29.02
2023-03-06T10:49:23.531Z,30.02
2023-03-06T10:50:23.390Z,25.51
2023-03-06T10:51:24.054Z,25.81
2023-03-06T10:52:23.310Z,28.32
2023-03-06T10:53:23.530Z,27.95
2023-03-06T10:54:23.482Z,34.99
2023-03-06T10:55:23.277Z,32.28
2023-03-06T10:56:23.271Z,28.89
2023-03-06T10:57:23.263Z,32.93
2023-03-06T10:58:23.535Z,46.40
2023-03-06T10:59:24.030Z,35.88
2023-03-06T11:00:23.588Z,34.96
2023-03-06T11:01:23.294Z,27.73
2023-03-06T11:02:23.214Z,26.27
2023-03-06T11:03:23.556Z,29.08
2023-03-06T11:04:23.376Z,27.26
2023-03-06T11:05:23.199Z,25.67
2023-03-06T11:06:24.030Z,25.00
2023-03-06T11:07:23.534Z,29.53
2023-03-06T11:08:23.444Z,28.40
2023-03-06T11:09:23.158Z,27.75
2023-03-06T11:10:23.143Z,27.78
2023-03-06T11:11:36.756Z,27.65
2023-03-06T11:12:23.186Z,27.95
2023-03-06T11:13:23.111Z,25.34
2023-03-06T11:14:23.231Z,28.88
2023-03-06T11:15:23.108Z,25.84
2023-03-06T11:16:25.787Z,23.27
2023-03-06T11:17:23.082Z,24.83
2023-03-06T11:18:23.065Z,25.35
2023-03-06T11:19:23.533Z,27.87
2023-03-06T11:20:23.071Z,28.30
2023-03-06T11:21:23.033Z,32.27
2023-03-06T11:22:23.038Z,36.49
2023-03-06T11:23:23.059Z,7.91
2023-03-06T11:24:23.271Z,15.62
2023-03-06T11:25:23.009Z,48.45
2023-03-06T11:26:23.045Z,54.42
2023-03-06T11:27:22.988Z,53.93
2023-03-06T11:28:23.055Z,52.65
2023-03-06T11:29:23.138Z,44.22
2023-03-06T11:30:22.970Z,47.80
2023-03-06T11:31:23.176Z,53.55
2023-03-06T11:32:23.164Z,50.94
2023-03-06T11:33:23.509Z,56.24
2023-03-06T11:34:23.339Z,54.71
2023-03-06T11:35:22.965Z,61.19
2023-03-06T11:36:22.922Z,56.86
2023-03-06T11:37:23.110Z,56.34
2023-03-06T11:38:22.892Z,47.48
2023-03-06T11:39:22.880Z,52.14
2023-03-06T11:40:22.898Z,71.69
2023-03-06T11:41:22.855Z,91.16
2023-03-06T11:42:22.849Z,103.71
2023-03-06T11:43:23.044Z,114.11
2023-03-06T11:44:22.821Z,120.55
2023-03-06T11:45:22.813Z,126.22
2023-03-06T11:46:26.342Z,131.49
2023-03-06T11:47:22.804Z,131.81
2023-03-06T11:48:22.819Z,132.88
2023-03-06T11:49:22.821Z,137.49
2023-03-06T11:50:22.929Z,151.36
2023-03-06T11:51:23.042Z,158.09
2023-03-06T11:52:23.052Z,162.04
2023-03-06T11:53:22.778Z,166.07
2023-03-06T11:54:22.785Z,167.23
2023-03-06T11:55:22.750Z,170.38
2023-03-06T11:56:22.800Z,175.10
2023-03-06T11:57:23.094Z,171.64
2023-03-06T11:58:22.736Z,176.46
2023-03-06T11:59:23.045Z,179.33
2023-03-06T12:00:22.688Z,176.13
2023-03-06T12:01:22.672Z,184.43
2023-03-06T12:02:22.683Z,182.63
2023-03-06T12:03:23.052Z,203.78
2023-03-06T12:04:22.673Z,209.41
2023-03-06T12:05:22.749Z,222.29
2023-03-06T12:06:22.627Z,209.47
2023-03-06T12:07:22.632Z,208.27
2023-03-06T12:08:23.052Z,217.01
2023-03-06T12:09:23.495Z,220.32
2023-03-06T12:10:22.594Z,226.31
2023-03-06T12:11:22.591Z,231.07
2023-03-06T12:12:22.608Z,244.76
2023-03-06T12:13:22.566Z,233.52
2023-03-06T12:14:23.255Z,237.97
2023-03-06T12:15:22.545Z,239.18
2023-03-06T12:16:22.562Z,242.92
2023-03-06T12:17:22.526Z,246.52
2023-03-06T12:18:22.527Z,248.52
2023-03-06T12:19:22.569Z,204.23
2023-03-06T12:20:22.581Z,155.25
2023-03-06T12:22:22.575Z,136.57
2023-03-06T12:31:22.451Z,227.30
2023-03-06T13:09:43.076Z,242.22
2023-03-06T13:23:24.611Z,227.31
2023-03-06T13:24:21.928Z,227.87
2023-03-06T13:25:22.034Z,229.80
2023-03-06T13:26:21.926Z,229.04
2023-03-06T13:27:21.902Z,227.42
2023-03-06T13:28:21.891Z,226.71
2023-03-06T13:29:21.879Z,229.14
2023-03-06T13:30:21.873Z,229.30
2023-03-06T13:31:27.453Z,231.74
2023-03-06T13:32:22.625Z,232.07
2023-03-06T13:33:21.838Z,232.56
2023-03-06T13:34:21.836Z,231.91
2023-03-06T13:35:21.849Z,235.10
2023-03-06T13:36:21.818Z,228.66
2023-03-06T13:37:22.086Z,246.11
2023-03-06T13:38:22.662Z,235.65
2023-03-06T13:39:21.817Z,242.00
2023-03-06T13:40:22.581Z,231.81
2023-03-06T13:41:21.767Z,238.98
2023-03-06T13:42:21.759Z,241.15
2023-03-06T13:43:21.748Z,236.16
2023-03-06T13:44:21.746Z,231.67
2023-03-06T13:45:22.089Z,231.10
2023-03-06T13:46:21.784Z,230.99
2023-03-06T13:47:21.729Z,234.71
2023-03-06T13:48:41.540Z,244.62
2023-03-06T13:49:21.691Z,245.00
2023-03-06T13:50:21.693Z,245.50
2023-03-06T13:51:21.996Z,246.97
2023-03-06T13:52:21.666Z,237.39
2023-03-06T14:05:24.089Z,221.55
2023-03-06T14:13:35.090Z,221.28
2023-03-06T14:22:28.087Z,215.48
2023-03-06T14:25:24.091Z,215.94
2023-03-06T14:28:28.096Z,215.72
2023-03-06T14:36:24.151Z,214.12
2023-03-06T14:45:36.106Z,210.52
2023-03-06T14:57:21.085Z,209.48
2023-03-06T14:58:27.655Z,209.38
2023-03-06T14:59:21.181Z,209.64
2023-03-06T15:00:21.676Z,209.60
2023-03-06T15:01:21.064Z,209.91
2023-03-06T15:02:21.034Z,209.50
2023-03-06T15:03:21.023Z,207.29
2023-03-06T15:04:27.663Z,208.83
2023-03-06T15:05:21.011Z,209.22
2023-03-06T15:06:21.007Z,209.31
2023-03-06T15:07:21.190Z,209.41
2023-03-06T15:08:20.985Z,208.95
2023-03-06T15:09:21.628Z,207.85
2023-03-06T15:10:20.966Z,208.34
2023-03-06T15:12:20.981Z,207.61
2023-03-06T15:13:27.633Z,207.87
2023-03-06T15:14:23.686Z,208.25
2023-03-06T15:15:20.938Z,208.08
2023-03-06T15:16:20.950Z,208.24
2023-03-06T15:17:21.118Z,208.10
2023-03-06T15:18:20.891Z,207.69
2023-03-06T15:19:21.129Z,206.41
2023-03-06T15:20:20.871Z,205.06
2023-03-06T15:21:20.867Z,203.10
2023-03-06T15:22:21.624Z,203.97
2023-03-06T15:23:20.854Z,204.54
2023-03-06T15:24:20.842Z,204.73
2023-03-06T15:25:21.134Z,205.16
2023-03-06T15:26:20.817Z,203.96
2023-03-06T15:27:20.808Z,205.04
2023-03-06T15:28:20.798Z,204.06
2023-03-06T15:29:23.639Z,204.25
2023-03-06T15:30:21.145Z,204.43
2023-03-06T15:31:20.859Z,204.52
2023-03-06T15:32:20.783Z,205.20
2023-03-06T15:33:20.755Z,206.50
2023-03-06T15:34:20.742Z,209.69
2023-03-06T15:35:20.788Z,217.42
2023-03-06T15:36:20.731Z,218.72
2023-03-06T15:37:23.622Z,216.77
2023-03-06T15:38:20.705Z,217.00
2023-03-06T15:39:21.128Z,220.46
2023-03-06T15:40:21.137Z,223.44
2023-03-06T15:41:20.697Z,237.00
2023-03-06T15:42:20.691Z,251.96
2023-03-06T15:43:20.667Z,231.94
2023-03-06T15:44:21.140Z,216.34
2023-03-06T15:45:20.654Z,215.31
2023-03-06T15:46:20.665Z,217.84
2023-03-06T15:47:20.632Z,220.12
2023-03-06T15:48:27.129Z,222.13
2023-03-06T15:49:21.133Z,222.51
2023-03-06T15:50:20.606Z,223.02
2023-03-06T15:51:21.169Z,223.55
2023-03-06T15:52:20.627Z,224.77
2023-03-06T15:53:21.135Z,224.85
2023-03-06T15:54:20.577Z,226.63
2023-03-06T15:55:20.564Z,225.06
2023-03-06T15:56:20.553Z,223.76
2023-03-06T15:57:20.549Z,224.70
2023-03-06T15:58:20.591Z,223.90
2023-03-06T15:59:21.133Z,223.57
2023-03-06T16:00:27.291Z,224.72
2023-03-06T16:01:20.525Z,225.02
2023-03-06T16:02:20.578Z,225.38
2023-03-06T16:03:23.140Z,224.82
2023-03-06T16:04:20.625Z,224.94
2023-03-06T16:05:20.704Z,224.99
2023-03-06T16:06:20.465Z,224.86
2023-03-06T16:07:20.455Z,224.41
2023-03-06T16:08:23.138Z,222.93
2023-03-06T16:09:23.139Z,224.78
2023-03-06T16:10:20.651Z,224.88
2023-03-06T16:11:24.579Z,224.83
2023-03-06T16:12:41.421Z,225.02
2023-03-06T16:13:21.139Z,225.79
2023-03-06T16:14:20.388Z,226.38
2023-03-06T16:15:22.145Z,226.28
2023-03-06T16:16:20.653Z,226.65
2023-03-06T16:17:20.611Z,224.92
2023-03-06T16:18:23.179Z,221.94
2023-03-06T16:19:26.340Z,223.69
2023-03-06T16:20:23.686Z,224.04
2023-03-06T16:21:20.605Z,223.83
2023-03-06T16:22:20.564Z,222.50
2023-03-06T16:23:20.562Z,220.59
2023-03-06T16:24:21.148Z,218.41
2023-03-06T16:25:20.538Z,218.50
2023-03-06T16:26:20.645Z,217.48
2023-03-06T16:27:20.518Z,216.64
2023-03-06T16:28:20.514Z,215.44
2023-03-06T16:29:20.501Z,216.02
2023-03-06T16:30:20.488Z,214.44
2023-03-06T16:31:20.487Z,214.42
2023-03-06T16:32:20.516Z,213.34
2023-03-06T16:33:20.468Z,213.82
2023-03-06T16:34:20.493Z,213.63
2023-03-06T16:35:20.485Z,214.54
2023-03-06T16:36:20.436Z,212.16
2023-03-06T16:37:20.434Z,212.74
2023-03-06T16:38:20.421Z,211.89
2023-03-06T16:39:20.407Z,212.00
2023-03-06T16:40:20.397Z,213.20
2023-03-06T16:41:20.394Z,211.89
2023-03-06T16:42:20.380Z,212.23
2023-03-06T16:43:20.370Z,212.72
2023-03-06T16:44:20.414Z,211.22
2023-03-06T16:45:20.374Z,210.95
2023-03-06T16:46:20.416Z,210.23
2023-03-06T16:47:23.144Z,213.16
2023-03-06T16:48:20.333Z,213.24
2023-03-06T16:49:20.374Z,213.29
2023-03-06T16:50:20.344Z,212.92
2023-03-06T16:51:20.311Z,211.87
2023-03-06T16:52:20.293Z,211.70
2023-03-06T16:53:20.341Z,211.21
2023-03-06T16:54:20.270Z,211.14
2023-03-06T16:55:20.265Z,209.54
2023-03-06T16:56:20.259Z,210.09
2023-03-06T16:57:20.260Z,209.23
2023-03-06T16:58:20.264Z,208.86
2023-03-06T16:59:20.309Z,207.47
2023-03-06T17:00:20.219Z,208.82
2023-03-06T17:01:20.279Z,207.37
2023-03-06T17:02:20.245Z,207.73
2023-03-06T17:03:20.226Z,207.33
2023-03-06T17:04:20.184Z,207.25
2023-03-06T17:05:20.198Z,206.40
2023-03-06T17:06:20.190Z,206.47
2023-03-06T17:07:21.160Z,205.68
2023-03-06T17:08:20.149Z,206.76
2023-03-06T17:09:20.207Z,206.36
2023-03-06T17:10:34.684Z,206.85
2023-03-06T17:11:20.652Z,207.57
2023-03-06T17:12:20.655Z,208.03
2023-03-06T17:13:20.103Z,208.11
2023-03-06T17:14:20.125Z,207.60
2023-03-06T17:15:20.091Z,207.38
2023-03-06T17:16:20.128Z,205.89
2023-03-06T17:17:20.073Z,205.00
2023-03-06T17:18:20.066Z,204.79
2023-03-06T17:19:20.171Z,201.95
2023-03-06T17:20:20.037Z,204.48
2023-03-06T17:21:20.032Z,202.53
2023-03-06T17:22:20.049Z,202.49
2023-03-06T17:23:20.017Z,201.82
2023-03-06T17:24:20.026Z,203.09
2023-03-06T17:25:20.003Z,202.88
2023-03-06T17:26:20.670Z,201.14
2023-03-06T17:27:19.980Z,201.08
2023-03-06T17:28:19.970Z,201.59
2023-03-06T17:29:19.964Z,202.93
2023-03-06T17:30:19.949Z,200.32
2023-03-06T17:31:20.029Z,200.21
2023-03-06T17:32:20.215Z,199.56
2023-03-06T17:33:19.920Z,199.72
2023-03-06T17:34:19.932Z,198.91
2023-03-06T17:35:19.956Z,201.13
2023-03-06T17:36:20.007Z,199.28
2023-03-06T17:37:19.923Z,198.73
2023-03-06T17:38:20.020Z,198.52
2023-03-06T17:39:19.870Z,200.31
2023-03-06T17:40:19.855Z,199.57
2023-03-06T17:41:19.894Z,199.07
2023-03-06T17:42:19.861Z,199.20
2023-03-06T17:43:19.829Z,198.90
2023-03-06T17:44:19.863Z,199.07
2023-03-06T17:45:19.813Z,199.10
2023-03-06T17:46:19.844Z,200.37
2023-03-06T17:47:19.821Z,200.08
2023-03-06T17:48:20.670Z,199.99
2023-03-06T17:49:20.673Z,200.11
2023-03-06T17:50:19.765Z,198.68
2023-03-06T17:51:19.763Z,197.26
2023-03-06T17:52:19.752Z,198.22
2023-03-06T17:53:19.741Z,199.43
2023-03-06T17:54:19.774Z,196.84
2023-03-06T17:55:19.728Z,196.69
2023-03-06T17:56:19.719Z,198.36
2023-03-06T17:57:19.708Z,197.29
2023-03-06T17:58:34.731Z,196.53
2023-03-06T17:59:20.683Z,197.36
2023-03-06T18:00:19.677Z,198.09
2023-03-06T18:01:19.706Z,198.32
2023-03-06T18:02:19.653Z,198.38
2023-03-06T18:03:19.647Z,198.18
2023-03-06T18:04:19.646Z,199.58
2023-03-06T18:05:19.634Z,197.62
2023-03-06T18:06:19.624Z,197.36
2023-03-06T18:07:19.617Z,197.74
2023-03-06T18:08:19.601Z,196.37
2023-03-06T18:09:19.608Z,198.11
2023-03-06T18:10:19.606Z,196.69
2023-03-06T18:11:19.572Z,196.03
2023-03-06T18:12:19.563Z,196.17
2023-03-06T18:13:19.560Z,196.91
2023-03-06T18:14:19.696Z,196.22
2023-03-06T18:15:19.537Z,195.73
2023-03-06T18:16:19.596Z,195.39
2023-03-06T18:17:19.610Z,197.38
2023-03-06T18:18:19.515Z,197.84
2023-03-06T18:19:19.501Z,196.26
2023-03-06T18:20:19.493Z,198.01
2023-03-06T18:21:19.482Z,198.01
2023-03-06T18:22:19.512Z,197.09
2023-03-06T18:23:20.180Z,195.74
2023-03-06T18:24:19.455Z,196.59
2023-03-06T18:25:19.445Z,197.44
2023-03-06T18:26:19.472Z,196.99
2023-03-06T18:27:19.436Z,197.87
2023-03-06T18:28:19.442Z,195.54
2023-03-06T18:29:19.413Z,196.02
2023-03-06T18:30:19.409Z,195.72
2023-03-06T18:31:19.434Z,194.60
2023-03-06T18:32:20.230Z,197.13
2023-03-06T18:33:19.424Z,195.71
2023-03-06T18:34:19.376Z,197.66
2023-03-06T18:35:19.395Z,195.50
2023-03-06T18:36:20.190Z,197.04
2023-03-06T18:37:19.347Z,195.93
2023-03-06T18:38:19.364Z,198.07
2023-03-06T18:39:19.333Z,194.85
2023-03-06T18:40:19.327Z,194.23
2023-03-06T18:41:19.301Z,196.83
2023-03-06T18:42:19.325Z,195.70
2023-03-06T18:43:19.283Z,197.18
2023-03-06T18:44:19.712Z,195.80
2023-03-06T18:45:22.197Z,196.06
2023-03-06T18:46:19.261Z,196.21
2023-03-06T18:47:22.199Z,196.30
2023-03-06T18:48:19.272Z,196.34
2023-03-06T18:49:19.236Z,196.47
2023-03-06T18:50:19.220Z,196.68
2023-03-06T18:51:19.214Z,195.83
2023-03-06T18:52:19.205Z,196.80
2023-03-06T18:53:19.221Z,197.02
2023-03-06T18:54:19.208Z,197.31
2023-03-06T18:55:19.695Z,197.79
2023-03-06T18:56:19.169Z,197.05
2023-03-06T18:57:19.168Z,196.60
2023-03-06T18:58:19.175Z,196.84
2023-03-06T18:59:19.147Z,194.23
2023-03-06T19:00:19.697Z,195.28
2023-03-06T19:01:19.221Z,194.35
2023-03-06T19:02:19.113Z,198.03
2023-03-06T19:03:19.102Z,195.59
2023-03-06T19:04:19.246Z,195.79
2023-03-06T19:05:21.702Z,196.96
2023-03-06T19:06:19.090Z,197.03
2023-03-06T19:07:19.717Z,197.01
2023-03-06T19:08:19.061Z,197.13
2023-03-06T19:09:19.212Z,195.69
2023-03-06T19:10:19.045Z,195.79
2023-03-06T19:11:19.038Z,197.55
2023-03-06T19:12:19.029Z,196.18
2023-03-06T19:13:19.021Z,194.80
2023-03-06T19:14:19.035Z,195.23
2023-03-06T19:15:19.001Z,196.88
2023-03-06T19:16:19.026Z,196.40
2023-03-06T19:17:19.214Z,195.97
2023-03-06T19:18:18.988Z,195.52
2023-03-06T19:19:18.967Z,194.87
2023-03-06T19:20:18.959Z,193.08
2023-03-06T19:21:18.977Z,194.38
2023-03-06T19:22:19.713Z,194.22
2023-03-06T19:23:18.931Z,196.43
2023-03-06T19:24:18.930Z,194.93
2023-03-06T19:25:18.910Z,192.74
2023-03-06T19:26:18.954Z,193.76
2023-03-06T19:27:18.890Z,193.14
2023-03-06T19:28:18.902Z,194.16
2023-03-06T19:29:18.880Z,194.45
2023-03-06T19:30:18.891Z,195.89
2023-03-06T19:31:19.667Z,194.88
2023-03-06T19:32:18.996Z,193.85
2023-03-06T19:33:18.845Z,193.91
2023-03-06T19:34:19.727Z,195.12
2023-03-06T19:35:33.810Z,194.47
2023-03-06T19:36:18.825Z,195.35
2023-03-06T19:37:18.805Z,195.64
2023-03-06T19:38:18.794Z,196.12
2023-03-06T19:39:19.724Z,195.37
2023-03-06T19:40:18.779Z,198.27
2023-03-06T19:41:18.774Z,198.45
2023-03-06T19:42:18.757Z,197.35
2023-03-06T19:43:18.753Z,195.23
2023-03-06T19:44:18.747Z,195.11
2023-03-06T19:45:18.733Z,193.52
2023-03-06T19:46:18.782Z,194.64
2023-03-06T19:47:18.716Z,194.79
2023-03-06T19:48:18.997Z,195.31
2023-03-06T19:49:18.697Z,194.06
2023-03-06T19:50:18.690Z,192.44
2023-03-06T19:51:18.679Z,193.51
2023-03-06T19:52:18.667Z,193.63
2023-03-06T19:53:18.660Z,192.98
2023-03-06T19:54:18.658Z,193.44
2023-03-06T19:55:18.646Z,191.67
2023-03-06T19:56:21.265Z,193.32
2023-03-06T19:57:18.627Z,193.42
2023-03-06T19:58:18.615Z,193.38
2023-03-06T19:59:18.619Z,192.71
2023-03-06T20:00:18.605Z,191.80
2023-03-06T20:01:18.642Z,193.08
2023-03-06T20:02:25.258Z,195.20
2023-03-06T20:03:18.576Z,195.55
2023-03-06T20:04:18.615Z,195.39
2023-03-06T20:05:21.239Z,195.89
2023-03-06T20:06:18.565Z,195.32
2023-03-06T20:07:18.542Z,194.90
2023-03-06T20:08:18.533Z,194.08
2023-03-06T20:09:18.518Z,194.36
2023-03-06T20:10:19.234Z,192.18
2023-03-06T20:11:21.236Z,195.73
2023-03-06T20:12:18.506Z,195.84
2023-03-06T20:13:18.478Z,193.03
2023-03-06T20:14:18.742Z,193.64
2023-03-06T20:15:19.229Z,193.10
2023-03-06T20:16:18.457Z,192.55
2023-03-06T20:17:18.445Z,193.24
2023-03-06T20:18:18.502Z,192.06
2023-03-06T20:19:18.423Z,191.42
2023-03-06T20:20:18.408Z,191.23
2023-03-06T20:21:18.408Z,190.79
2023-03-06T20:22:18.389Z,191.48
2023-03-06T20:23:19.230Z,191.19
2023-03-06T20:24:18.372Z,191.11
2023-03-06T20:25:18.383Z,191.63
2023-03-06T20:26:19.234Z,189.87
2023-03-06T20:27:18.345Z,192.43
2023-03-06T20:28:18.333Z,191.11
2023-03-06T20:29:18.331Z,191.17
2023-03-06T20:30:18.318Z,190.44
2023-03-06T20:31:18.370Z,190.24
2023-03-06T20:32:18.359Z,189.94
2023-03-06T20:33:18.302Z,191.24
2023-03-06T20:34:18.316Z,188.80
2023-03-06T20:35:18.768Z,190.69
2023-03-06T20:36:18.266Z,191.62
2023-03-06T20:37:18.248Z,189.35
2023-03-06T20:38:18.254Z,189.61
2023-03-06T20:39:18.235Z,192.08
2023-03-06T20:40:18.316Z,190.00
2023-03-06T20:41:18.213Z,190.80
2023-03-06T20:42:18.735Z,190.75
2023-03-06T20:43:18.203Z,192.01
2023-03-06T20:44:18.192Z,191.14
2023-03-06T20:45:18.181Z,190.74
2023-03-06T20:46:18.204Z,189.36
2023-03-06T20:47:18.164Z,189.05
2023-03-06T20:48:18.159Z,190.89
2023-03-06T20:49:27.167Z,192.22
2023-03-06T20:50:18.151Z,192.78
2023-03-06T20:51:18.133Z,192.78
2023-03-06T20:52:18.117Z,193.07
2023-03-06T20:53:18.107Z,191.82
2023-03-06T20:54:18.170Z,192.08
2023-03-06T20:55:18.092Z,190.82
2023-03-06T20:56:18.096Z,193.76
2023-03-06T20:57:18.081Z,190.51
2023-03-06T20:58:18.065Z,190.17
2023-03-06T20:59:18.054Z,190.25
2023-03-06T21:00:18.050Z,189.82
2023-03-06T21:01:18.106Z,188.71
2023-03-06T21:02:18.027Z,188.94
2023-03-06T21:03:18.022Z,187.73
2023-03-06T21:04:18.013Z,188.23
2023-03-06T21:05:18.058Z,187.26
2023-03-06T21:06:18.745Z,188.82
2023-03-06T21:07:17.982Z,190.37
2023-03-06T21:08:17.979Z,189.82
2023-03-06T21:09:17.982Z,189.01
2023-03-06T21:10:17.955Z,191.05
2023-03-06T21:11:17.946Z,190.06
2023-03-06T21:12:17.944Z,191.96
2023-03-06T21:13:17.929Z,187.15
2023-03-06T21:14:17.943Z,189.20
2023-03-06T21:15:17.910Z,189.18
2023-03-06T21:16:18.025Z,188.91
2023-03-06T21:17:17.902Z,189.45
2023-03-06T21:18:17.895Z,190.79
2023-03-06T21:19:17.878Z,189.03
2023-03-06T21:20:17.876Z,189.93
2023-03-06T21:21:17.903Z,189.42
2023-03-06T21:22:17.855Z,188.08
2023-03-06T21:23:17.841Z,187.86
2023-03-06T21:24:19.710Z,186.65
2023-03-06T21:25:17.833Z,186.95
2023-03-06T21:26:17.814Z,187.36
2023-03-06T21:27:17.810Z,187.21
2023-03-06T21:28:17.800Z,188.43
2023-03-06T21:29:18.828Z,189.90
2023-03-06T21:30:17.793Z,189.94
2023-03-06T21:31:17.878Z,189.99
2023-03-06T21:32:17.816Z,188.87
2023-03-06T21:33:17.752Z,188.97
2023-03-06T21:34:17.773Z,190.28
2023-03-06T21:35:17.732Z,189.17
2023-03-06T21:36:17.739Z,188.68
2023-03-06T21:37:17.745Z,188.86
2023-03-06T21:38:17.709Z,191.18
2023-03-06T21:39:18.297Z,187.40
2023-03-06T21:40:17.694Z,187.84
2023-03-06T21:41:17.682Z,187.98
2023-03-06T21:42:17.675Z,187.42
2023-03-06T21:43:18.269Z,188.48
2023-03-06T21:44:17.668Z,186.39
2023-03-06T21:45:17.646Z,187.43
2023-03-06T21:46:17.678Z,188.33
2023-03-06T21:47:17.634Z,188.45
2023-03-06T21:48:17.631Z,189.40
2023-03-06T21:49:17.613Z,186.24
2023-03-06T21:50:17.602Z,186.76
2023-03-06T21:51:17.608Z,188.17
2023-03-06T21:52:17.584Z,186.72
2023-03-06T21:53:17.605Z,186.62
2023-03-06T21:54:17.566Z,185.36
2023-03-06T21:55:17.557Z,187.33
2023-03-06T21:56:17.794Z,185.59
2023-03-06T21:57:17.541Z,188.95
2023-03-06T21:58:17.531Z,186.27
2023-03-06T21:59:17.519Z,186.15
2023-03-06T22:00:17.509Z,187.73
2023-03-06T22:01:17.555Z,188.54
2023-03-06T22:02:17.499Z,188.11
2023-03-06T22:03:17.482Z,186.90
2023-03-06T22:04:17.506Z,185.86
2023-03-06T22:05:17.481Z,186.15
2023-03-06T22:06:17.506Z,186.34
2023-03-06T22:07:17.449Z,187.95
2023-03-06T22:08:17.437Z,185.17
2023-03-06T22:09:17.454Z,185.12
2023-03-06T22:10:17.427Z,186.09
2023-03-06T22:11:24.309Z,182.76
2023-03-06T22:12:17.407Z,183.26
2023-03-06T22:13:17.394Z,183.71
2023-03-06T22:14:17.387Z,184.48
2023-03-06T22:15:17.379Z,184.99
2023-03-06T22:16:17.498Z,184.44
2023-03-06T22:17:17.362Z,186.70
2023-03-06T22:18:17.349Z,186.52
2023-03-06T22:19:17.341Z,185.35
2023-03-06T22:20:20.277Z,188.00
2023-03-06T22:21:17.323Z,188.12
2023-03-06T22:22:17.317Z,188.17
2023-03-06T22:23:17.318Z,185.52
2023-03-06T22:24:17.301Z,186.02
2023-03-06T22:25:17.316Z,183.34
2023-03-06T22:26:17.780Z,184.99
2023-03-06T22:27:17.272Z,186.62
2023-03-06T22:28:17.262Z,186.20
2023-03-06T22:29:17.261Z,184.33
2023-03-06T22:30:17.248Z,183.95
2023-03-06T22:31:17.284Z,182.83
2023-03-06T22:32:17.398Z,185.11
2023-03-06T22:33:17.213Z,182.54
2023-03-06T22:34:17.199Z,185.24
2023-03-06T22:35:17.195Z,185.11
2023-03-06T22:36:17.178Z,185.96
2023-03-06T22:37:17.178Z,183.45
2023-03-06T22:38:17.168Z,187.17
2023-03-06T22:39:17.155Z,186.89
2023-03-06T22:40:17.157Z,184.32
2023-03-06T22:41:17.190Z,185.44
2023-03-06T22:42:17.131Z,183.97
2023-03-06T22:43:17.123Z,183.50
2023-03-06T22:44:17.116Z,184.46
2023-03-06T22:45:17.098Z,184.80
2023-03-06T22:46:17.197Z,185.26
2023-03-06T22:47:17.108Z,183.88
2023-03-06T22:48:17.071Z,183.59
2023-03-06T22:49:17.111Z,185.39
2023-03-06T22:50:17.061Z,183.49
2023-03-06T22:51:17.053Z,186.20
2023-03-06T22:52:17.034Z,185.26
2023-03-06T22:53:17.027Z,184.93
2023-03-06T22:54:17.015Z,183.27
2023-03-06T22:55:17.008Z,185.01
2023-03-06T22:56:17.008Z,183.19
2023-03-06T22:57:17.811Z,184.94
2023-03-06T22:58:17.289Z,185.22
2023-03-06T22:59:16.975Z,183.61
2023-03-06T23:00:16.979Z,184.65
2023-03-06T23:01:17.092Z,182.74
2023-03-06T23:02:16.956Z,183.93
2023-03-06T23:03:16.942Z,182.81
2023-03-06T23:04:16.963Z,183.73
2023-03-06T23:05:16.937Z,185.53
2023-03-06T23:06:16.917Z,184.97
2023-03-06T23:07:16.942Z,184.49
2023-03-06T23:08:16.896Z,185.50
2023-03-06T23:09:16.909Z,184.63
2023-03-06T23:10:16.903Z,182.55
2023-03-06T23:11:16.912Z,181.77
2023-03-06T23:12:16.898Z,182.45
2023-03-06T23:13:17.334Z,185.29
2023-03-06T23:14:17.866Z,181.90
2023-03-06T23:15:16.866Z,185.23
2023-03-06T23:16:16.824Z,182.99
2023-03-06T23:17:16.813Z,183.96
2023-03-06T23:18:16.810Z,182.20
2023-03-06T23:19:16.799Z,182.06
2023-03-06T23:20:17.298Z,185.34
2023-03-06T23:21:16.787Z,182.11
2023-03-06T23:22:16.806Z,182.57
2023-03-06T23:23:16.783Z,184.18
2023-03-06T23:24:16.752Z,183.60
2023-03-06T23:25:16.744Z,182.14
2023-03-06T23:26:16.743Z,181.62
2023-03-06T23:27:16.731Z,183.46
2023-03-06T23:28:16.747Z,181.19
2023-03-06T23:29:16.745Z,180.73
2023-03-06T23:30:16.713Z,181.48
2023-03-06T23:31:16.775Z,183.23
2023-03-06T23:32:16.790Z,181.58
2023-03-06T23:33:16.669Z,182.28
2023-03-06T23:34:16.664Z,181.82
2023-03-06T23:35:16.679Z,182.38
2023-03-06T23:36:17.305Z,181.49
2023-03-06T23:37:17.344Z,181.13
2023-03-06T23:38:16.637Z,184.46
2023-03-06T23:39:16.619Z,181.28